Airport Name : Forbes Fld

Other Name : Forbes Fld

ICAO : KFOE

IATA : FOE

FAA : FOE

Latitude : 38.950944

Longitude : -95.663611

Country : United States

Local Date and Time : 15 Jul 2024 09:30

 

TAF (Terminal Aerodrome Forecast)

KFOE 151120Z 1512/1612 20008KT P6SM FEW200 FM151500 20014G26KT P6SM SCT200 FM160000 21009KT P6SM SCT150

 

METAR (METeorological Aerodrome Report)

KFOE 151353Z 20015G19KT 10SM CLR 28/22 A2984 RMK AO2 SLP092 T02780217

KFOE 151253Z 19010KT 10SM CLR 27/21 A2985 RMK AO2 SLP093 T02670211

KFOE 151153Z 19010KT 10SM CLR 26/21 A2986 RMK AO2 SLP095 T02560211 10272 20250 58004 $

KFOE 151053Z 18007KT 10SM CLR 26/21 A2986 RMK AO2 SLP097 T02560211 $